Terminal Aerodrome Forecast
Issued by NWS

Home | Current Version | Previous Version | Text Only | Print | Product List | Glossary On
Versions: 1 2 3 4 5 6 7 8 9 10 11 12
000
FTUS43 KPAH 280520
TAFOWB
TAF
KOWB 280520Z 2806/2906 00000KT P6SM SKC
     FM281330 09002KT P6SM SCT080
      TEMPO 2819/2821 BKN035
     FM282200 07003KT P6SM SKC=

USA.gov is the U.S. government's official web portal to all federal, state and local government web resources and services.